Time;durP1;ratioP1;P1;durP2;ratioP2;P2;SDS_P1;SDS_P2;PMS_P1;PMS_P2;Temp;Humidity;BMP_temperature;BMP_pressure;BME280_temperature;BME280_humidity;BME280_pressure;Samples;Min_cycle;Max_cycle;Signal;HPM_P1;HPM_P2
2022/01/05 00:01:12;;;;;;;4.13;2.00;;;5.00;99.90;;;;;;5033104;28;21002;-66
2022/01/05 00:03:39;;;;;;;1.73;1.50;;;4.90;99.90;;;;;;5032743;28;20482;-66
2022/01/05 00:06:07;;;;;;;4.50;2.10;;;4.90;99.90;;;;;;5034093;28;20480;-66
2022/01/05 00:08:34;;;;;;;1.97;1.80;;;4.80;99.90;;;;;;5034251;28;20458;-66
2022/01/05 00:11:00;;;;;;;4.53;1.97;;;4.70;99.90;;;;;;5034622;28;20998;-66
2022/01/05 00:13:27;;;;;;;4.60;1.90;;;4.70;99.90;;;;;;5034342;28;20967;-66
2022/01/05 00:15:54;;;;;;;3.40;2.00;;;4.60;99.90;;;;;;5034577;28;20608;-66
2022/01/05 00:18:21;;;;;;;3.67;2.00;;;4.60;99.90;;;;;;5034097;28;20446;-66
2022/01/05 00:20:48;;;;;;;7.10;4.87;;;4.60;99.90;;;;;;5033279;28;20466;-66
2022/01/05 00:23:17;;;;;;;8.27;2.77;;;4.50;99.90;;;;;;5033246;28;20493;-66
2022/01/05 00:25:43;;;;;;;5.07;2.53;;;4.50;99.90;;;;;;5033308;28;20812;-66
2022/01/05 00:28:10;;;;;;;5.93;2.30;;;4.50;99.90;;;;;;5033184;28;20446;-66
2022/01/05 00:30:37;;;;;;;4.67;2.60;;;4.60;99.90;;;;;;5033193;28;20815;-66
2022/01/05 00:33:04;;;;;;;10.90;3.00;;;4.50;99.90;;;;;;5033443;28;20439;-66
2022/01/05 00:35:30;;;;;;;10.00;3.77;;;4.50;99.90;;;;;;5033594;28;20450;-66
2022/01/05 00:37:57;;;;;;;4.03;3.13;;;4.50;99.90;;;;;;5033551;28;20438;-66
2022/01/05 00:40:25;;;;;;;11.27;4.13;;;4.50;99.90;;;;;;5033426;28;20447;-66
2022/01/05 00:42:52;;;;;;;6.80;4.80;;;4.50;99.90;;;;;;5033207;28;20478;-66
2022/01/05 00:45:19;;;;;;;7.43;4.80;;;4.60;99.90;;;;;;5033456;28;20447;-66
2022/01/05 00:47:45;;;;;;;13.80;4.70;;;4.60;99.90;;;;;;5033332;28;20454;-66
2022/01/05 00:50:12;;;;;;;7.77;5.40;;;4.60;99.90;;;;;;5033000;28;20450;-67
2022/01/05 00:52:39;;;;;;;8.87;5.27;;;4.60;99.90;;;;;;5033296;28;20438;-66
2022/01/05 00:55:07;;;;;;;7.23;5.33;;;4.60;99.90;;;;;;5033258;28;20450;-66
2022/01/05 00:57:35;;;;;;;8.17;5.50;;;4.60;99.90;;;;;;5033196;28;20470;-66
2022/01/05 01:00:01;;;;;;;10.27;4.70;;;4.70;99.90;;;;;;5033224;28;20806;-66
2022/01/05 01:02:28;;;;;;;8.47;4.77;;;4.70;99.90;;;;;;5033041;28;20478;-66
2022/01/05 01:04:55;;;;;;;10.93;5.60;;;4.70;99.90;;;;;;5033130;28;20450;-66
2022/01/05 01:07:22;;;;;;;8.33;4.50;;;4.60;99.90;;;;;;5033073;28;20798;-66
2022/01/05 01:09:48;;;;;;;8.43;5.20;;;4.60;99.90;;;;;;5032837;28;20449;-66
2022/01/05 01:12:15;;;;;;;10.80;4.80;;;4.60;99.90;;;;;;5032896;28;20550;-67
2022/01/05 01:14:43;;;;;;;8.93;4.80;;;4.60;99.90;;;;;;5033803;28;20446;-66
2022/01/05 01:17:10;;;;;;;6.03;4.60;;;4.60;99.90;;;;;;5036524;28;20447;-66
2022/01/05 01:19:37;;;;;;;9.97;5.40;;;4.70;99.90;;;;;;5036758;28;20442;-66
2022/01/05 01:22:04;;;;;;;9.13;4.30;;;4.70;99.90;;;;;;5036313;28;20470;-66
2022/01/05 01:24:30;;;;;;;6.60;4.83;;;4.70;99.90;;;;;;5036383;28;20474;-66
2022/01/05 01:26:57;;;;;;;5.00;4.40;;;4.70;99.90;;;;;;5036348;28;21001;-66
2022/01/05 01:29:24;;;;;;;11.70;5.77;;;4.70;99.90;;;;;;5036075;28;20953;-66
2022/01/05 01:31:52;;;;;;;9.37;5.60;;;4.70;99.90;;;;;;5036213;28;20466;-66
2022/01/05 01:34:19;;;;;;;8.97;6.30;;;4.60;99.90;;;;;;5036247;28;20813;-66
2022/01/05 01:36:46;;;;;;;8.73;6.30;;;4.50;99.90;;;;;;5036274;28;20447;-66
2022/01/05 01:39:12;;;;;;;9.40;5.70;;;4.60;99.90;;;;;;5035966;28;20966;-66
2022/01/05 01:41:39;;;;;;;12.37;5.67;;;4.50;99.90;;;;;;5036097;28;20836;-66
2022/01/05 01:44:07;;;;;;;6.87;6.17;;;4.50;99.90;;;;;;5036072;28;20475;-66
2022/01/05 01:46:34;;;;;;;13.70;7.53;;;4.50;99.90;;;;;;5036015;28;20450;-66
2022/01/05 01:49:02;;;;;;;8.33;6.60;;;4.40;99.90;;;;;;5036064;28;20454;-66
2022/01/05 01:51:28;;;;;;;12.00;8.13;;;4.40;99.90;;;;;;5035599;28;20824;-66
2022/01/05 01:53:55;;;;;;;14.57;8.37;;;4.40;99.90;;;;;;5036158;28;20434;-66
2022/01/05 01:56:25;;;;;;;11.43;8.70;;;4.50;99.90;;;;;;5035501;28;20936;-66
2022/01/05 01:58:52;;;;;;;10.53;9.27;;;4.50;99.90;;;;;;5035746;28;20453;-66
2022/01/05 02:01:19;;;;;;;17.23;10.03;;;4.50;99.90;;;;;;5035935;28;20470;-66
2022/01/05 02:03:46;;;;;;;16.63;8.83;;;4.50;99.90;;;;;;5035321;28;20485;-66
2022/01/05 02:06:14;;;;;;;16.77;10.13;;;4.50;99.90;;;;;;5035610;28;20455;-66
2022/01/05 02:08:41;;;;;;;13.80;8.87;;;4.50;99.90;;;;;;5035496;28;20446;-66
2022/01/05 02:11:08;;;;;;;12.80;7.47;;;4.50;99.90;;;;;;5035424;28;20471;-66
2022/01/05 02:13:35;;;;;;;14.73;7.73;;;4.40;99.90;;;;;;5035509;28;20446;-66
2022/01/05 02:16:03;;;;;;;13.10;7.43;;;4.40;99.90;;;;;;5035414;28;20461;-66
2022/01/05 02:21:16;;;;;;;21.00;6.30;;;4.30;99.90;;;;;;5035488;28;20493;-66
2022/01/05 02:23:52;;;;;;;11.10;5.57;;;4.20;99.90;;;;;;5035086;28;20533;-66
2022/01/05 02:26:19;;;;;;;7.50;5.50;;;4.20;99.90;;;;;;5034390;28;20434;-66
2022/01/05 02:28:46;;;;;;;10.90;5.20;;;4.10;99.90;;;;;;5034979;28;20443;-66
2022/01/05 02:31:13;;;;;;;8.63;4.10;;;4.10;99.90;;;;;;5034862;28;20470;-66
2022/01/05 02:33:40;;;;;;;8.60;3.87;;;4.20;99.90;;;;;;5034971;28;20450;-66
2022/01/05 02:36:08;;;;;;;9.10;4.37;;;4.10;99.90;;;;;;5035067;28;20856;-66
2022/01/05 02:38:37;;;;;;;10.33;3.97;;;4.10;99.90;;;;;;5035242;28;20489;-65
2022/01/05 02:41:08;;;;;;;11.73;4.63;;;4.00;99.90;;;;;;5034890;28;20467;-66
2022/01/05 02:43:35;;;;;;;10.43;3.67;;;4.10;99.90;;;;;;5034848;28;20466;-65
2022/01/05 02:46:02;;;;;;;7.90;3.90;;;4.00;99.90;;;;;;5034584;28;21011;-65
2022/01/05 02:48:30;;;;;;;11.30;4.53;;;4.00;99.90;;;;;;5034855;28;20449;-65
2022/01/05 02:50:57;;;;;;;8.73;4.27;;;4.10;99.90;;;;;;5034646;28;20840;-66
2022/01/05 02:53:24;;;;;;;6.20;3.60;;;4.00;99.90;;;;;;5034739;28;20447;-66
2022/01/05 02:55:53;;;;;;;14.20;4.13;;;4.00;99.90;;;;;;5034672;28;20454;-66
2022/01/05 02:58:20;;;;;;;6.87;3.50;;;4.00;99.90;;;;;;5034612;28;20469;-66
2022/01/05 03:00:47;;;;;;;12.57;4.07;;;4.00;99.90;;;;;;5034226;28;20469;-66
2022/01/05 03:03:14;;;;;;;10.40;4.33;;;4.00;99.90;;;;;;5034258;28;20467;-66
2022/01/05 03:05:41;;;;;;;8.10;3.00;;;4.00;99.90;;;;;;5034801;28;20447;-66
2022/01/05 03:08:08;;;;;;;10.43;3.30;;;4.00;99.90;;;;;;5034500;28;20967;-66
2022/01/05 03:10:35;;;;;;;7.00;3.50;;;3.90;99.90;;;;;;5034775;28;20980;-66
2022/01/05 03:13:03;;;;;;;5.57;2.97;;;3.90;99.90;;;;;;5035574;28;20450;-66
2022/01/05 03:15:30;;;;;;;6.43;3.00;;;3.90;99.90;;;;;;5035800;28;20941;-66
2022/01/05 03:17:57;;;;;;;8.63;3.57;;;3.90;99.90;;;;;;5035918;28;20458;-66
2022/01/05 03:20:23;;;;;;;7.60;3.30;;;3.80;99.90;;;;;;5034818;28;20459;-66
2022/01/05 03:22:50;;;;;;;8.50;3.30;;;3.80;99.90;;;;;;5034147;28;20469;-66
2022/01/05 03:25:19;;;;;;;9.67;3.20;;;3.80;99.90;;;;;;5033776;28;20482;-66
2022/01/05 03:27:47;;;;;;;10.50;3.37;;;3.80;99.90;;;;;;5034228;28;20545;-66
2022/01/05 03:30:21;;;;;;;6.80;2.83;;;3.80;99.90;;;;;;5034041;28;20824;-66
2022/01/05 03:33:08;;;;;;;10.63;3.50;;;3.80;99.90;;;;;;5034118;28;20889;-66
2022/01/05 03:35:37;;;;;;;8.23;3.03;;;3.80;99.90;;;;;;5033795;28;20419;-66
2022/01/05 03:38:05;;;;;;;6.33;2.83;;;3.80;99.90;;;;;;5033930;28;20453;-66
2022/01/05 03:40:34;;;;;;;11.53;3.20;;;3.70;99.90;;;;;;5033651;28;21037;-66
2022/01/05 03:43:01;;;;;;;11.53;2.80;;;3.70;99.90;;;;;;5033736;28;20459;-66
2022/01/05 03:45:29;;;;;;;6.93;3.17;;;3.70;99.90;;;;;;5033555;28;20445;-66
2022/01/05 03:47:56;;;;;;;7.00;2.40;;;3.80;99.90;;;;;;5033875;28;20431;-66
2022/01/05 03:50:23;;;;;;;9.70;3.00;;;3.80;99.90;;;;;;5033464;28;20457;-66
2022/01/05 03:52:49;;;;;;;7.80;5.03;;;3.80;99.90;;;;;;5033729;28;20450;-66
2022/01/05 03:55:16;;;;;;;6.87;3.33;;;3.80;99.90;;;;;;5033688;28;20446;-65
2022/01/05 03:57:43;;;;;;;7.00;3.00;;;3.70;99.90;;;;;;5033723;28;20477;-66
2022/01/05 04:00:11;;;;;;;13.10;2.73;;;3.70;99.90;;;;;;5033301;28;20958;-65
2022/01/05 04:02:39;;;;;;;13.10;3.93;;;3.60;99.90;;;;;;5033584;28;20449;-66
2022/01/05 04:05:06;;;;;;;10.50;3.50;;;3.60;99.90;;;;;;5033799;28;20486;-66
2022/01/05 04:07:33;;;;;;;12.40;3.63;;;3.60;99.90;;;;;;5033531;28;20457;-66
2022/01/05 04:10:00;;;;;;;12.10;2.87;;;3.60;99.90;;;;;;5033821;28;20438;-66
2022/01/05 04:12:27;;;;;;;10.10;2.77;;;3.60;99.90;;;;;;5033431;28;20466;-66
2022/01/05 04:14:53;;;;;;;8.97;3.33;;;3.50;99.90;;;;;;5033675;28;20443;-66
2022/01/05 04:17:21;;;;;;;11.20;3.10;;;3.50;99.90;;;;;;5033707;28;20443;-66
2022/01/05 04:19:49;;;;;;;11.13;3.27;;;3.50;99.90;;;;;;5033425;28;20457;-66
2022/01/05 04:22:16;;;;;;;12.80;2.87;;;3.50;99.90;;;;;;5033260;28;20482;-66
2022/01/05 04:24:43;;;;;;;11.03;3.07;;;3.40;99.90;;;;;;5033404;28;20473;-66
2022/01/05 04:27:09;;;;;;;5.57;2.63;;;3.50;99.90;;;;;;5033005;28;20434;-66
2022/01/05 04:29:36;;;;;;;8.50;3.13;;;3.50;99.90;;;;;;5033305;28;20456;-66
2022/01/05 04:32:04;;;;;;;10.23;3.60;;;3.50;99.90;;;;;;5033202;28;20478;-66
2022/01/05 04:34:31;;;;;;;10.00;3.87;;;3.60;99.90;;;;;;5033012;28;20971;-66
2022/01/05 04:36:59;;;;;;;13.57;2.83;;;3.50;99.90;;;;;;5032981;28;20439;-66
2022/01/05 04:39:26;;;;;;;10.03;3.87;;;3.50;99.90;;;;;;5033228;28;20450;-66
2022/01/05 04:41:53;;;;;;;9.17;2.87;;;3.50;99.90;;;;;;5032822;28;20980;-66
2022/01/05 04:44:19;;;;;;;9.40;3.53;;;3.40;99.90;;;;;;5033165;28;20497;-66
2022/01/05 04:46:46;;;;;;;7.80;3.13;;;3.40;99.90;;;;;;5033320;28;20427;-66
2022/01/05 04:49:13;;;;;;;8.63;3.10;;;3.40;99.90;;;;;;5033248;28;20454;-66
2022/01/05 04:51:40;;;;;;;11.93;4.17;;;3.30;99.90;;;;;;5036950;28;20839;-66
2022/01/05 04:54:08;;;;;;;8.37;3.77;;;3.40;99.90;;;;;;5037033;28;20446;-66
2022/01/05 04:56:34;;;;;;;7.80;3.80;;;3.40;99.90;;;;;;5036675;28;20453;-66
2022/01/05 04:59:01;;;;;;;11.53;3.47;;;3.40;99.90;;;;;;5036929;28;20453;-66
2022/01/05 05:01:28;;;;;;;10.70;3.27;;;3.30;99.90;;;;;;5036792;28;20466;-66
2022/01/05 05:03:55;;;;;;;13.70;3.70;;;3.30;99.90;;;;;;5036710;28;20501;-66
2022/01/05 05:06:22;;;;;;;7.70;4.00;;;3.30;99.90;;;;;;5036748;28;20791;-66
2022/01/05 05:08:49;;;;;;;11.27;4.50;;;3.30;99.90;;;;;;5036680;28;20466;-66
2022/01/05 05:11:18;;;;;;;7.33;3.23;;;3.30;99.90;;;;;;5036637;28;20470;-66
2022/01/05 05:13:44;;;;;;;7.93;3.13;;;3.20;99.90;;;;;;5036632;28;20443;-66
2022/01/05 05:16:11;;;;;;;10.07;3.60;;;3.20;99.90;;;;;;5036882;28;20445;-66
2022/01/05 05:18:38;;;;;;;8.17;3.10;;;3.20;99.90;;;;;;5036545;28;20453;-66
2022/01/05 05:21:05;;;;;;;9.77;3.63;;;3.30;99.90;;;;;;5036472;28;20469;-66
2022/01/05 05:23:31;;;;;;;17.00;3.43;;;3.20;99.90;;;;;;5036342;28;20455;-66
2022/01/05 05:25:58;;;;;;;7.33;3.10;;;3.20;99.90;;;;;;5036324;28;20486;-66
2022/01/05 05:28:26;;;;;;;10.00;3.30;;;3.20;99.90;;;;;;5036055;28;20446;-66
2022/01/05 05:30:53;;;;;;;12.63;3.60;;;3.20;99.90;;;;;;5036264;28;20476;-67
2022/01/05 05:33:20;;;;;;;12.20;3.17;;;3.20;99.90;;;;;;5036531;28;20452;-66
2022/01/05 05:35:46;;;;;;;13.43;3.13;;;3.30;99.90;;;;;;5036259;28;20442;-66
2022/01/05 05:38:15;;;;;;;13.13;2.70;;;3.30;99.90;;;;;;5036124;28;20453;-67
2022/01/05 05:40:42;;;;;;;15.03;3.10;;;3.30;99.90;;;;;;5036023;28;20474;-67
2022/01/05 05:43:09;;;;;;;13.63;3.47;;;3.30;99.90;;;;;;5036042;28;20478;-67
2022/01/05 05:45:38;;;;;;;7.57;2.87;;;3.30;99.90;;;;;;5036047;28;20469;-66
2022/01/05 05:48:05;;;;;;;9.10;3.40;;;3.20;99.90;;;;;;5035718;28;20835;-66
2022/01/05 05:50:32;;;;;;;9.90;3.30;;;3.20;99.90;;;;;;5035533;28;20888;-67
2022/01/05 05:52:59;;;;;;;9.07;4.90;;;3.10;99.90;;;;;;5035938;28;20435;-67
2022/01/05 05:55:25;;;;;;;8.03;3.57;;;3.10;99.90;;;;;;5035987;28;20443;-67
2022/01/05 05:57:52;;;;;;;10.20;3.50;;;3.20;99.90;;;;;;5035659;28;20945;-67
2022/01/05 06:00:19;;;;;;;9.13;2.63;;;3.20;99.90;;;;;;5035719;28;20434;-67
2022/01/05 06:02:47;;;;;;;7.57;2.70;;;3.10;99.90;;;;;;5034646;28;20863;-66
2022/01/05 06:05:14;;;;;;;17.10;3.20;;;3.10;99.90;;;;;;5035609;28;20494;-66
2022/01/05 06:07:41;;;;;;;13.73;3.07;;;3.10;99.90;;;;;;5035416;28;20446;-66
2022/01/05 06:10:08;;;;;;;8.70;3.13;;;3.10;99.90;;;;;;5035660;28;20473;-66
2022/01/05 06:12:35;;;;;;;10.30;3.30;;;3.10;99.90;;;;;;5035760;28;20994;-66
2022/01/05 06:15:02;;;;;;;8.20;2.60;;;3.20;99.90;;;;;;5035949;28;20445;-66
2022/01/05 06:17:29;;;;;;;9.97;3.83;;;3.20;99.90;;;;;;5036967;28;20450;-66
2022/01/05 06:19:57;;;;;;;12.63;3.47;;;3.30;99.90;;;;;;5035919;28;20947;-66
2022/01/05 06:22:23;;;;;;;9.50;3.47;;;3.20;99.90;;;;;;5035142;28;20482;-66
2022/01/05 06:24:50;;;;;;;7.20;2.73;;;3.30;99.90;;;;;;5035422;28;20474;-66
2022/01/05 06:27:18;;;;;;;7.30;3.30;;;3.30;99.90;;;;;;5035278;28;20859;-66
2022/01/05 06:29:44;;;;;;;14.07;3.70;;;3.20;99.90;;;;;;5035525;28;20427;-66
2022/01/05 06:32:11;;;;;;;10.83;2.67;;;3.30;99.90;;;;;;5035107;28;20481;-66
2022/01/05 06:34:38;;;;;;;13.13;3.40;;;3.30;99.90;;;;;;5034884;28;20450;-66
2022/01/05 06:37:07;;;;;;;16.93;3.50;;;3.30;99.90;;;;;;5035100;28;20447;-66
2022/01/05 06:39:34;;;;;;;7.47;2.90;;;3.30;99.90;;;;;;5035061;28;20450;-66
2022/01/05 06:42:01;;;;;;;12.63;3.07;;;3.30;99.90;;;;;;5034944;28;20462;-66
2022/01/05 06:44:28;;;;;;;10.80;3.63;;;3.30;99.90;;;;;;5034913;28;20483;-67
2022/01/05 06:46:54;;;;;;;9.27;2.80;;;3.30;99.90;;;;;;5035407;28;20447;-66
2022/01/05 06:49:23;;;;;;;12.37;2.63;;;3.30;99.90;;;;;;5034554;28;20451;-66
2022/01/05 06:51:50;;;;;;;9.93;2.77;;;3.30;99.90;;;;;;5034640;28;21052;-66
2022/01/05 06:54:19;;;;;;;13.03;3.30;;;3.30;99.90;;;;;;5034775;28;20450;-66
2022/01/05 06:56:46;;;;;;;14.90;3.77;;;3.30;99.90;;;;;;5034438;28;20971;-66
2022/01/05 06:59:13;;;;;;;11.03;3.60;;;3.40;99.90;;;;;;5034460;28;20952;-66
2022/01/05 07:01:40;;;;;;;8.47;3.67;;;3.40;99.90;;;;;;5034541;28;20477;-66
2022/01/05 07:04:07;;;;;;;9.97;2.83;;;3.50;99.90;;;;;;5034494;28;20457;-66
2022/01/05 07:06:33;;;;;;;13.03;3.67;;;3.40;99.90;;;;;;5034427;28;20945;-66
2022/01/05 07:09:00;;;;;;;9.90;3.57;;;3.50;99.90;;;;;;5034502;28;20455;-66
2022/01/05 07:11:28;;;;;;;13.27;3.80;;;3.40;99.90;;;;;;5034126;28;20972;-66
2022/01/05 07:13:55;;;;;;;12.63;3.53;;;3.50;99.90;;;;;;5034057;28;20447;-66
2022/01/05 07:16:22;;;;;;;9.87;2.97;;;3.50;99.90;;;;;;5034392;28;20457;-66
2022/01/05 07:18:48;;;;;;;8.73;2.77;;;3.50;99.90;;;;;;5034033;28;20451;-66
2022/01/05 07:21:15;;;;;;;8.80;2.93;;;3.50;99.90;;;;;;5034337;28;20470;-66
2022/01/05 07:23:42;;;;;;;10.83;3.60;;;3.40;99.90;;;;;;5034052;28;20458;-65
2022/01/05 07:26:08;;;;;;;17.37;3.70;;;3.50;99.90;;;;;;5034318;28;20489;-66
2022/01/05 07:28:36;;;;;;;13.23;2.90;;;3.40;99.90;;;;;;5034318;28;20453;-66
2022/01/05 07:31:03;;;;;;;11.60;3.03;;;3.50;99.90;;;;;;5034689;28;20469;-66
2022/01/05 07:33:30;;;;;;;9.23;2.80;;;3.50;99.90;;;;;;5034337;28;20812;-66
2022/01/05 07:35:57;;;;;;;17.67;3.63;;;3.50;99.90;;;;;;5034376;28;20442;-66
2022/01/05 07:38:24;;;;;;;8.83;3.53;;;3.50;99.90;;;;;;5034135;28;20964;-66
2022/01/05 07:40:51;;;;;;;13.87;4.40;;;3.60;99.90;;;;;;5034092;28;20517;-66
2022/01/05 07:43:17;;;;;;;14.53;3.23;;;3.60;99.90;;;;;;5034004;28;20473;-66
2022/01/05 07:45:45;;;;;;;12.77;3.23;;;3.50;99.90;;;;;;5034052;28;20834;-66
2022/01/05 07:48:12;;;;;;;9.87;3.60;;;3.60;99.90;;;;;;5034261;28;20446;-66
2022/01/05 07:50:39;;;;;;;19.77;4.07;;;3.60;99.90;;;;;;5033797;28;20489;-67
2022/01/05 07:53:05;;;;;;;9.83;3.90;;;3.60;99.90;;;;;;5033554;28;20971;-66
2022/01/05 07:55:34;;;;;;;14.60;3.33;;;3.50;99.90;;;;;;5033872;28;20454;-66
2022/01/05 07:58:01;;;;;;;8.93;3.43;;;3.50;99.90;;;;;;5033737;28;20477;-66
2022/01/05 08:00:28;;;;;;;15.87;3.27;;;3.50;99.90;;;;;;5033652;28;20458;-67
2022/01/05 08:02:56;;;;;;;14.07;4.10;;;3.60;99.90;;;;;;5033719;28;20447;-66
2022/01/05 08:05:23;;;;;;;10.57;2.90;;;3.60;99.90;;;;;;5033160;28;20995;-66
2022/01/05 08:07:50;;;;;;;13.73;3.57;;;3.60;99.90;;;;;;5033300;28;20454;-66
2022/01/05 08:10:17;;;;;;;14.73;4.10;;;3.60;99.90;;;;;;5033519;28;20454;-67
2022/01/05 08:12:43;;;;;;;18.37;4.17;;;3.60;99.90;;;;;;5033572;28;20449;-66
2022/01/05 08:15:11;;;;;;;13.73;4.47;;;3.60;99.90;;;;;;5033498;28;20451;-66
2022/01/05 08:17:40;;;;;;;11.80;3.63;;;3.60;99.90;;;;;;5033537;28;20787;-66
2022/01/05 08:20:10;;;;;;;14.50;4.37;;;3.70;99.90;;;;;;5033476;28;20528;-66
2022/01/05 08:22:40;;;;;;;16.23;4.87;;;3.70;99.90;;;;;;5033281;28;20540;-66
2022/01/05 08:25:07;;;;;;;20.63;3.50;;;3.70;99.90;;;;;;5034923;28;20489;-66
2022/01/05 08:27:34;;;;;;;15.57;4.30;;;3.70;99.90;;;;;;5037593;28;20472;-66
2022/01/05 08:30:04;;;;;;;15.73;4.90;;;3.70;99.90;;;;;;5037189;28;20932;-66
2022/01/05 08:32:31;;;;;;;11.40;3.97;;;3.70;99.90;;;;;;5037404;28;20561;-66
2022/01/05 08:34:58;;;;;;;10.80;3.93;;;3.80;99.90;;;;;;5037396;28;20439;-66
2022/01/05 08:37:26;;;;;;;16.30;4.63;;;3.80;99.90;;;;;;5037447;28;20537;-66
2022/01/05 08:39:53;;;;;;;17.90;4.40;;;3.80;99.90;;;;;;5037301;28;20929;-66
2022/01/05 08:42:21;;;;;;;12.23;3.70;;;3.80;99.90;;;;;;5037235;28;20474;-66
2022/01/05 08:44:47;;;;;;;10.23;3.47;;;3.90;99.90;;;;;;5037110;28;20482;-66
2022/01/05 08:47:14;;;;;;;16.00;4.23;;;3.80;99.90;;;;;;5037141;28;20457;-66
2022/01/05 08:49:41;;;;;;;13.23;4.30;;;3.80;99.90;;;;;;5037102;28;20959;-66
2022/01/05 08:52:08;;;;;;;14.50;4.23;;;3.90;99.90;;;;;;5037015;28;20803;-66
2022/01/05 08:54:36;;;;;;;8.13;3.63;;;3.90;99.90;;;;;;5037112;28;20821;-66
2022/01/05 08:57:04;;;;;;;15.83;5.27;;;3.90;99.90;;;;;;5036921;28;20450;-66
2022/01/05 08:59:31;;;;;;;12.67;4.10;;;3.90;99.90;;;;;;5036604;28;20944;-66
2022/01/05 09:01:57;;;;;;;14.00;4.23;;;4.00;99.90;;;;;;5036479;28;20873;-66
2022/01/05 09:04:25;;;;;;;10.83;4.53;;;4.00;99.90;;;;;;5036743;28;20457;-66
2022/01/05 09:06:52;;;;;;;19.90;4.03;;;4.00;99.90;;;;;;5036799;28;20474;-66
2022/01/05 09:09:18;;;;;;;11.57;3.60;;;4.00;99.90;;;;;;5036996;28;20452;-66
2022/01/05 09:11:46;;;;;;;18.73;4.07;;;4.00;99.90;;;;;;5036703;28;20473;-66
2022/01/05 09:14:13;;;;;;;15.67;3.80;;;4.10;99.90;;;;;;5036742;28;20477;-66
2022/01/05 09:16:40;;;;;;;15.57;5.07;;;4.10;99.90;;;;;;5036778;28;20444;-66
2022/01/05 09:19:06;;;;;;;12.63;4.27;;;4.00;99.90;;;;;;5037059;28;20457;-66
2022/01/05 09:21:33;;;;;;;12.20;4.20;;;4.10;99.90;;;;;;5036599;28;20466;-66
2022/01/05 09:24:00;;;;;;;12.23;3.70;;;4.10;99.90;;;;;;5036778;28;20837;-66
2022/01/05 09:26:27;;;;;;;13.17;4.50;;;4.20;99.90;;;;;;5036499;28;20488;-66
2022/01/05 09:28:55;;;;;;;14.10;4.33;;;4.20;99.90;;;;;;5036090;28;20815;-66
2022/01/05 09:31:21;;;;;;;11.00;4.47;;;4.20;99.90;;;;;;5036348;28;20466;-66
2022/01/05 09:33:48;;;;;;;11.40;4.60;;;4.30;99.90;;;;;;5036276;28;20444;-66
2022/01/05 09:36:18;;;;;;;10.80;4.80;;;4.30;99.90;;;;;;5036001;28;20469;-66
2022/01/05 09:44:16;;;;;;;11.97;4.10;;;4.40;99.90;;;;;;5035871;28;20410;-66
2022/01/05 09:47:08;;;;;;;14.27;5.47;;;4.30;99.90;;;;;;5035969;28;20572;-66
2022/01/05 09:49:37;;;;;;;18.00;5.40;;;4.40;99.90;;;;;;5036057;28;20435;-66
2022/01/05 09:52:06;;;;;;;14.53;5.63;;;4.50;99.90;;;;;;5035539;28;20941;-66
2022/01/05 09:54:34;;;;;;;10.90;4.83;;;4.60;99.90;;;;;;5036056;28;20454;-66
2022/01/05 09:57:02;;;;;;;12.40;4.67;;;4.70;99.90;;;;;;5035818;28;20457;-66
2022/01/05 09:59:33;;;;;;;9.30;4.23;;;4.80;99.90;;;;;;5035623;28;20435;-66
2022/01/05 10:02:00;;;;;;;10.43;4.80;;;4.80;99.90;;;;;;5035495;28;20964;-66
2022/01/05 10:04:27;;;;;;;15.07;4.60;;;4.80;99.90;;;;;;5035797;28;20454;-66
2022/01/05 10:06:54;;;;;;;13.40;5.47;;;4.80;99.90;;;;;;5035633;28;20509;-66
2022/01/05 10:09:21;;;;;;;18.97;5.37;;;4.90;99.90;;;;;;5035423;28;20909;-66
2022/01/05 10:11:48;;;;;;;17.37;5.13;;;4.90;99.90;;;;;;5035345;28;20988;-66
2022/01/05 10:14:16;;;;;;;13.60;4.60;;;4.90;99.90;;;;;;5035582;28;20445;-66
2022/01/05 10:17:01;;;;;;;10.60;4.73;;;4.80;99.90;;;;;;5035699;28;20534;-66
2022/01/05 10:19:28;;;;;;;12.27;5.23;;;4.80;99.90;;;;;;5035501;28;20466;-66
2022/01/05 10:21:56;;;;;;;13.57;5.30;;;4.80;99.90;;;;;;5035650;28;20470;-66
2022/01/05 10:24:41;;;;;;;12.90;4.80;;;4.70;99.90;;;;;;5035342;28;20426;-66
2022/01/05 10:27:08;;;;;;;9.63;4.50;;;4.70;99.90;;;;;;5035228;28;20483;-66
2022/01/05 10:29:35;;;;;;;7.27;4.27;;;4.70;99.90;;;;;;5035325;28;20450;-67
2022/01/05 10:32:08;;;;;;;7.13;4.73;;;4.60;99.90;;;;;;5035190;28;20497;-67
2022/01/05 10:34:36;;;;;;;12.20;5.07;;;4.70;99.90;;;;;;5035249;28;20492;-66
2022/01/05 10:37:06;;;;;;;11.53;4.53;;;4.70;99.90;;;;;;5034899;28;20481;-66
2022/01/05 10:39:37;;;;;;;13.27;5.93;;;4.80;99.90;;;;;;5035442;28;20438;-66
2022/01/05 10:42:05;;;;;;;14.50;4.50;;;5.00;99.90;;;;;;5035183;28;20482;-66
2022/01/05 10:44:32;;;;;;;14.03;3.93;;;5.10;99.90;;;;;;5034957;28;20451;-66
2022/01/05 10:47:00;;;;;;;14.07;4.93;;;5.30;99.90;;;;;;5034400;28;20490;-66
2022/01/05 10:49:31;;;;;;;9.03;3.90;;;5.30;99.90;;;;;;5034830;28;20435;-67
2022/01/05 10:52:00;;;;;;;11.13;4.93;;;5.20;99.90;;;;;;5035095;28;20471;-66
2022/01/05 10:54:29;;;;;;;17.03;5.17;;;5.30;99.90;;;;;;5034874;28;20477;-66
2022/01/05 10:57:07;;;;;;;12.43;5.30;;;5.30;99.90;;;;;;5034525;28;20944;-66
2022/01/05 10:59:37;;;;;;;12.77;4.50;;;5.30;99.90;;;;;;5034723;28;20517;-66
2022/01/05 11:02:24;;;;;;;13.13;5.20;;;5.40;99.90;;;;;;5034529;28;20557;-66
2022/01/05 11:04:54;;;;;;;12.00;4.23;;;5.60;99.90;;;;;;5034371;28;20442;-66
2022/01/05 11:07:22;;;;;;;11.67;5.03;;;5.70;99.90;;;;;;5034572;28;20470;-66
2022/01/05 11:09:54;;;;;;;13.63;4.97;;;5.80;99.90;;;;;;5034595;28;20496;-66
2022/01/05 11:12:21;;;;;;;11.00;5.13;;;5.80;99.90;;;;;;5034069;28;20998;-66
2022/01/05 11:14:47;;;;;;;12.23;4.60;;;5.80;99.90;;;;;;5034119;28;20960;-66
2022/01/05 11:17:17;;;;;;;8.40;4.70;;;5.80;99.90;;;;;;5034053;28;20446;-66
2022/01/05 11:19:45;;;;;;;11.90;5.03;;;5.80;99.90;;;;;;5034292;28;20446;-66
2022/01/05 11:22:15;;;;;;;14.43;4.90;;;5.80;99.90;;;;;;5034114;28;20462;-66
2022/01/05 11:24:44;;;;;;;15.80;5.00;;;5.80;99.90;;;;;;5034282;28;20431;-66
2022/01/05 11:27:14;;;;;;;20.23;6.60;;;5.70;99.90;;;;;;5034145;28;20505;-66
2022/01/05 11:29:41;;;;;;;8.33;4.80;;;5.70;99.90;;;;;;5033791;28;20431;-66
2022/01/05 11:32:10;;;;;;;10.70;5.03;;;5.70;99.90;;;;;;5034031;28;20470;-69
2022/01/05 11:34:38;;;;;;;17.67;5.63;;;5.60;99.90;;;;;;5034011;28;20945;-69
2022/01/05 11:37:07;;;;;;;13.43;5.30;;;5.60;99.90;;;;;;5034053;28;20447;-69
2022/01/05 11:39:41;;;;;;;27.83;5.20;;;5.60;99.90;;;;;;5033949;28;20912;-69
2022/01/05 11:42:13;;;;;;;14.13;6.20;;;5.70;99.90;;;;;;5033934;28;20465;-67
2022/01/05 11:44:49;;;;;;;13.03;4.90;;;5.80;99.90;;;;;;5033893;28;20517;-65
2022/01/05 11:47:22;;;;;;;19.63;4.70;;;6.00;99.90;;;;;;5033497;28;20991;-65
2022/01/05 11:49:48;;;;;;;13.00;5.07;;;6.20;99.90;;;;;;5033831;28;20431;-65
2022/01/05 11:52:15;;;;;;;8.40;4.60;;;6.40;99.90;;;;;;5033735;28;20837;-65
2022/01/05 11:55:02;;;;;;;8.90;4.93;;;6.40;99.90;;;;;;5033871;28;20492;-65
2022/01/05 11:57:29;;;;;;;9.80;5.50;;;6.30;99.90;;;;;;5033406;28;20435;-65
2022/01/05 12:00:17;;;;;;;10.80;4.87;;;6.10;99.90;;;;;;5033925;28;20873;-65
2022/01/05 12:02:44;;;;;;;11.40;5.67;;;5.90;99.90;;;;;;5033627;28;20481;-65
2022/01/05 12:05:12;;;;;;;15.30;5.00;;;5.80;99.90;;;;;;5033652;28;20447;-65
2022/01/05 12:07:42;;;;;;;14.13;5.50;;;5.80;99.90;;;;;;5033484;28;20481;-65
2022/01/05 12:10:18;;;;;;;15.63;5.60;;;5.90;99.90;;;;;;5033605;28;20443;-65
2022/01/05 12:12:59;;;;;;;13.30;5.40;;;5.90;99.90;;;;;;5033507;28;20438;-65
2022/01/05 12:15:50;;;;;;;10.97;4.30;;;6.00;99.90;;;;;;5033523;28;20529;-65
2022/01/05 12:18:24;;;;;;;14.67;4.80;;;6.10;99.90;;;;;;5033547;28;20437;-65
2022/01/05 12:20:52;;;;;;;14.23;4.97;;;6.10;99.90;;;;;;5033361;28;20461;-66
2022/01/05 12:23:22;;;;;;;8.03;4.53;;;6.00;99.90;;;;;;5033506;28;20474;-65
2022/01/05 12:26:18;;;;;;;14.50;4.40;;;5.90;99.90;;;;;;5033752;28;20435;-65
2022/01/05 12:28:57;;;;;;;8.40;3.90;;;5.90;99.90;;;;;;5033657;28;20442;-65
2022/01/05 12:31:56;;;;;;;9.00;4.27;;;5.90;99.90;;;;;;5033505;28;20476;-65
2022/01/05 12:34:52;;;;;;;12.57;5.70;;;5.80;99.90;;;;;;5033394;28;20441;-65
2022/01/05 12:37:45;;;;;;;10.80;4.67;;;5.80;99.90;;;;;;5033425;28;20439;-65
2022/01/05 12:40:30;;;;;;;11.73;4.50;;;5.70;99.90;;;;;;5033239;28;20849;-65
2022/01/05 12:43:31;;;;;;;11.70;4.00;;;5.70;99.90;;;;;;5033220;28;20450;-65
2022/01/05 12:45:59;;;;;;;8.13;4.13;;;5.70;99.90;;;;;;4972054;28;20464;-65
2022/01/05 12:48:59;;;;;;;12.30;4.47;;;5.70;99.90;;;;;;5020981;28;20450;-65
2022/01/05 12:51:34;;;;;;;11.40;4.70;;;5.80;99.90;;;;;;5033072;28;20516;-65
2022/01/05 12:54:06;;;;;;;14.80;4.97;;;5.80;99.90;;;;;;5033123;28;20445;-65
2022/01/05 12:56:34;;;;;;;8.70;4.20;;;5.80;99.90;;;;;;5033210;28;20427;-65
2022/01/05 12:59:04;;;;;;;16.17;4.70;;;5.90;99.90;;;;;;5033180;28;20450;-65
2022/01/05 13:01:31;;;;;;;10.00;4.70;;;6.00;99.90;;;;;;5033049;28;20466;-65
2022/01/05 13:03:59;;;;;;;9.53;4.80;;;6.00;99.90;;;;;;5033092;28;20446;-65
2022/01/05 13:06:28;;;;;;;12.67;5.33;;;6.10;99.90;;;;;;5032948;28;20486;-65